SHT22A EGLL-EGJB
Flight info
| Callsign | SHT22A |
|---|---|
| Flight time | 0h 32m |
| Altitude | 21000 |
| Route | DCT GASGU N866 SAM/N0378F200 N63 LELNA/N0373F190 |
| Aircraft | A319/M-SDE3FGIJ1KRWXY/LB1 |
Departure
| Time | 2026-04-21 11:04 |
|---|---|
| Airport | London Heathrow Airport (EGLL) |
Arrival
| Time | 2026-04-21 11:36 |
|---|---|
| Airport | Guernsey Airport (EGJB) |
| Time | Latitude | Longitude | Altitude | Speed | Heading |
|---|---|---|---|---|---|
| 2026-04-21 09:45 | 51.47187 | -0.48593 | 90 ft | 0 kts | 269° |
| 2026-04-21 10:56 | 51.47187 | -0.48590 | 87 ft | 2 kts | 269° |
| 2026-04-21 10:56 | 51.47187 | -0.48552 | 87 ft | 2 kts | 269° |
| 2026-04-21 10:57 | 51.47189 | -0.48514 | 87 ft | 4 kts | 255° |
| 2026-04-21 10:57 | 51.47200 | -0.48479 | 88 ft | 4 kts | 201° |
| 2026-04-21 10:57 | 51.47215 | -0.48475 | 88 ft | 0 kts | 179° |
| 2026-04-21 11:00 | 51.47213 | -0.48475 | 88 ft | 2 kts | 179° |
| 2026-04-21 11:00 | 51.47179 | -0.48475 | 88 ft | 7 kts | 180° |
| 2026-04-21 11:01 | 51.47109 | -0.48474 | 87 ft | 12 kts | 180° |
| 2026-04-21 11:01 | 51.47032 | -0.48474 | 87 ft | 10 kts | 180° |
| 2026-04-21 11:01 | 51.46948 | -0.48473 | 87 ft | 15 kts | 180° |
| 2026-04-21 11:02 | 51.46724 | -0.48471 | 87 ft | 17 kts | 179° |
| 2026-04-21 11:02 | 51.46627 | -0.48470 | 87 ft | 4 kts | 180° |
| 2026-04-21 11:02 | 51.46584 | -0.48470 | 88 ft | 8 kts | 180° |
| 2026-04-21 11:02 | 51.46530 | -0.48469 | 89 ft | 8 kts | 180° |
| 2026-04-21 11:03 | 51.46478 | -0.48454 | 92 ft | 7 kts | 120° |
| 2026-04-21 11:03 | 51.46477 | -0.48401 | 89 ft | 11 kts | 88° |
| 2026-04-21 11:03 | 51.46479 | -0.47748 | 87 ft | 105 kts | 90° |
| 2026-04-21 11:03 | 51.46487 | -0.46242 | 434 ft | 145 kts | 89° |
| 2026-04-21 11:04 | 51.46498 | -0.44600 | 1374 ft | 148 kts | 86° |
| 2026-04-21 11:04 | 51.46517 | -0.42852 | 1892 ft | 166 kts | 86° |
| 2026-04-21 11:04 | 51.46295 | -0.40916 | 2256 ft | 195 kts | 115° |
| 2026-04-21 11:04 | 51.45476 | -0.38979 | 2659 ft | 222 kts | 123° |
| 2026-04-21 11:05 | 51.44526 | -0.36856 | 3240 ft | 245 kts | 123° |
| 2026-04-21 11:05 | 51.43447 | -0.34679 | 4208 ft | 255 kts | 134° |
| 2026-04-21 11:05 | 51.41906 | -0.33181 | 5295 ft | 266 kts | 158° |
| 2026-04-21 11:05 | 51.40211 | -0.32793 | 6263 ft | 275 kts | 181° |
| 2026-04-21 11:06 | 51.38354 | -0.33627 | 7267 ft | 283 kts | 208° |
| 2026-04-21 11:06 | 51.37272 | -0.34886 | 7907 ft | 287 kts | 221° |
| 2026-04-21 11:06 | 51.36070 | -0.36608 | 8701 ft | 290 kts | 223° |
| 2026-04-21 11:06 | 51.35066 | -0.38057 | 9374 ft | 292 kts | 224° |
| 2026-04-21 11:07 | 51.33909 | -0.39786 | 10134 ft | 294 kts | 228° |
| 2026-04-21 11:07 | 51.32662 | -0.42504 | 10713 ft | 309 kts | 239° |
| 2026-04-21 11:07 | 51.31456 | -0.45506 | 11060 ft | 331 kts | 240° |
| 2026-04-21 11:07 | 51.30293 | -0.48453 | 11688 ft | 337 kts | 240° |
| 2026-04-21 11:08 | 51.29036 | -0.51638 | 12484 ft | 341 kts | 240° |
| 2026-04-21 11:08 | 51.27768 | -0.54854 | 13312 ft | 343 kts | 240° |
| 2026-04-21 11:08 | 51.26488 | -0.58089 | 14113 ft | 346 kts | 240° |
| 2026-04-21 11:08 | 51.25197 | -0.61348 | 14836 ft | 349 kts | 240° |
| 2026-04-21 11:09 | 51.23903 | -0.64604 | 15166 ft | 364 kts | 241° |
| 2026-04-21 11:09 | 51.22692 | -0.67648 | 15282 ft | 380 kts | 240° |
| 2026-04-21 11:09 | 51.21250 | -0.71252 | 15718 ft | 389 kts | 240° |
| 2026-04-21 11:09 | 51.19783 | -0.74896 | 16343 ft | 392 kts | 240° |
| 2026-04-21 11:10 | 51.18303 | -0.78563 | 17009 ft | 395 kts | 241° |
| 2026-04-21 11:10 | 51.16811 | -0.82253 | 17648 ft | 397 kts | 241° |
| 2026-04-21 11:10 | 51.15312 | -0.85951 | 18276 ft | 399 kts | 241° |
| 2026-04-21 11:10 | 51.13798 | -0.89685 | 18845 ft | 402 kts | 242° |
| 2026-04-21 11:11 | 51.12282 | -0.93429 | 19389 ft | 403 kts | 242° |
| 2026-04-21 11:11 | 51.10761 | -0.97180 | 19935 ft | 404 kts | 242° |
| 2026-04-21 11:11 | 51.09234 | -1.00949 | 20232 ft | 409 kts | 242° |
| 2026-04-21 11:11 | 51.07683 | -1.04776 | 20286 ft | 413 kts | 242° |
| 2026-04-21 11:12 | 51.06098 | -1.08677 | 20291 ft | 414 kts | 242° |
| 2026-04-21 11:12 | 51.04535 | -1.12516 | 20291 ft | 415 kts | 242° |
| 2026-04-21 11:12 | 51.02911 | -1.16318 | 20294 ft | 419 kts | 236° |
| 2026-04-21 11:12 | 51.00753 | -1.19500 | 20295 ft | 431 kts | 220° |
| 2026-04-21 11:13 | 50.98177 | -1.21966 | 20301 ft | 434 kts | 216° |
| 2026-04-21 11:13 | 50.95563 | -1.24366 | 20294 ft | 434 kts | 215° |
| 2026-04-21 11:13 | 50.92936 | -1.26744 | 20300 ft | 434 kts | 215° |
| 2026-04-21 11:13 | 50.90309 | -1.29104 | 20301 ft | 435 kts | 215° |
| 2026-04-21 11:14 | 50.87676 | -1.31467 | 20297 ft | 434 kts | 215° |
| 2026-04-21 11:14 | 50.85051 | -1.33826 | 20291 ft | 434 kts | 215° |
| 2026-04-21 11:14 | 50.82423 | -1.36189 | 20285 ft | 434 kts | 215° |
| 2026-04-21 11:14 | 50.79802 | -1.38552 | 20281 ft | 434 kts | 215° |
| 2026-04-21 11:15 | 50.77182 | -1.40916 | 20278 ft | 434 kts | 215° |
| 2026-04-21 11:15 | 50.74561 | -1.43279 | 20271 ft | 434 kts | 215° |
| 2026-04-21 11:15 | 50.71938 | -1.45641 | 20268 ft | 434 kts | 215° |
| 2026-04-21 11:15 | 50.69317 | -1.47998 | 20266 ft | 434 kts | 215° |
| 2026-04-21 11:16 | 50.66697 | -1.50349 | 20268 ft | 434 kts | 215° |
| 2026-04-21 11:16 | 50.64073 | -1.52697 | 20266 ft | 434 kts | 214° |
| 2026-04-21 11:16 | 50.61448 | -1.55045 | 20264 ft | 434 kts | 214° |
| 2026-04-21 11:16 | 50.58828 | -1.57385 | 20264 ft | 433 kts | 214° |
| 2026-04-21 11:17 | 50.56204 | -1.59724 | 20260 ft | 433 kts | 214° |
| 2026-04-21 11:17 | 50.53582 | -1.62062 | 20258 ft | 433 kts | 214° |
| 2026-04-21 11:17 | 50.50960 | -1.64399 | 20257 ft | 433 kts | 214° |
| 2026-04-21 11:17 | 50.48338 | -1.66732 | 20255 ft | 433 kts | 214° |
| 2026-04-21 11:18 | 50.45711 | -1.69060 | 20255 ft | 433 kts | 214° |
| 2026-04-21 11:18 | 50.43086 | -1.71379 | 20247 ft | 433 kts | 214° |
| 2026-04-21 11:18 | 50.40461 | -1.73694 | 20245 ft | 433 kts | 214° |
| 2026-04-21 11:18 | 50.37830 | -1.76013 | 20246 ft | 433 kts | 214° |
| 2026-04-21 11:19 | 50.35205 | -1.78324 | 20249 ft | 433 kts | 214° |
| 2026-04-21 11:19 | 50.32580 | -1.80632 | 20246 ft | 433 kts | 214° |
| 2026-04-21 11:19 | 50.29952 | -1.82945 | 20248 ft | 433 kts | 214° |
| 2026-04-21 11:19 | 50.27296 | -1.85286 | 20245 ft | 433 kts | 214° |
| 2026-04-21 11:20 | 50.24674 | -1.87599 | 20243 ft | 433 kts | 214° |
| 2026-04-21 11:20 | 50.22045 | -1.89913 | 20241 ft | 433 kts | 214° |
| 2026-04-21 11:20 | 50.19419 | -1.92221 | 20041 ft | 433 kts | 214° |
| 2026-04-21 11:20 | 50.16796 | -1.94520 | 19771 ft | 432 kts | 213° |
| 2026-04-21 11:21 | 50.14180 | -1.96805 | 19526 ft | 431 kts | 213° |
| 2026-04-21 11:21 | 50.11560 | -1.99084 | 19280 ft | 430 kts | 213° |
| 2026-04-21 11:21 | 50.08961 | -2.01337 | 18942 ft | 422 kts | 213° |
| 2026-04-21 11:21 | 50.06424 | -2.03532 | 18580 ft | 413 kts | 212° |
| 2026-04-21 11:22 | 50.03941 | -2.05683 | 18179 ft | 405 kts | 212° |
| 2026-04-21 11:22 | 50.01504 | -2.07797 | 17898 ft | 396 kts | 213° |
| 2026-04-21 11:22 | 49.99200 | -2.09895 | 17669 ft | 377 kts | 218° |
| 2026-04-21 11:22 | 49.97247 | -2.12434 | 17442 ft | 357 kts | 229° |
| 2026-04-21 11:23 | 49.95603 | -2.15266 | 16704 ft | 355 kts | 232° |
| 2026-04-21 11:23 | 49.93936 | -2.18203 | 15650 ft | 369 kts | 232° |
| 2026-04-21 11:23 | 49.92233 | -2.21193 | 15022 ft | 369 kts | 231° |
| 2026-04-21 11:23 | 49.90534 | -2.24152 | 14523 ft | 364 kts | 231° |
| 2026-04-21 11:24 | 49.88852 | -2.27070 | 14033 ft | 362 kts | 230° |
| 2026-04-21 11:24 | 49.87310 | -2.29747 | 13544 ft | 359 kts | 231° |
| 2026-04-21 11:24 | 49.85655 | -2.32625 | 13050 ft | 357 kts | 230° |
| 2026-04-21 11:24 | 49.84009 | -2.35488 | 12555 ft | 355 kts | 230° |
| 2026-04-21 11:25 | 49.82369 | -2.38344 | 12072 ft | 354 kts | 230° |
| 2026-04-21 11:25 | 49.81108 | -2.40785 | 11668 ft | 352 kts | 235° |
| 2026-04-21 11:25 | 49.79684 | -2.43806 | 11182 ft | 349 kts | 235° |
| 2026-04-21 11:25 | 49.78273 | -2.46842 | 10575 ft | 348 kts | 235° |
| 2026-04-21 11:26 | 49.76875 | -2.49883 | 10120 ft | 344 kts | 235° |
| 2026-04-21 11:26 | 49.75517 | -2.52857 | 9691 ft | 334 kts | 235° |
| 2026-04-21 11:26 | 49.74204 | -2.55760 | 9277 ft | 325 kts | 235° |
| 2026-04-21 11:26 | 49.72931 | -2.58604 | 8838 ft | 317 kts | 235° |
| 2026-04-21 11:27 | 49.71699 | -2.61380 | 8373 ft | 309 kts | 235° |
| 2026-04-21 11:27 | 49.70502 | -2.64100 | 7910 ft | 302 kts | 235° |
| 2026-04-21 11:27 | 49.69317 | -2.66682 | 7459 ft | 295 kts | 227° |
| 2026-04-21 11:27 | 49.67863 | -2.68879 | 7011 ft | 290 kts | 220° |
| 2026-04-21 11:28 | 49.66389 | -2.70971 | 6561 ft | 287 kts | 220° |
| 2026-04-21 11:28 | 49.64940 | -2.73043 | 6187 ft | 280 kts | 220° |
| 2026-04-21 11:28 | 49.63532 | -2.75076 | 5826 ft | 275 kts | 220° |
| 2026-04-21 11:28 | 49.62152 | -2.77089 | 5465 ft | 271 kts | 220° |
| 2026-04-21 11:29 | 49.60802 | -2.79078 | 5107 ft | 267 kts | 220° |
| 2026-04-21 11:29 | 49.59475 | -2.81047 | 4744 ft | 263 kts | 220° |
| 2026-04-21 11:29 | 49.58171 | -2.82992 | 4388 ft | 258 kts | 220° |
| 2026-04-21 11:29 | 49.56770 | -2.84521 | 4104 ft | 245 kts | 203° |
| 2026-04-21 11:30 | 49.55233 | -2.85519 | 3848 ft | 235 kts | 186° |
| 2026-04-21 11:30 | 49.53627 | -2.85913 | 3586 ft | 233 kts | 181° |
| 2026-04-21 11:30 | 49.52049 | -2.86219 | 3320 ft | 224 kts | 180° |
| 2026-04-21 11:30 | 49.50531 | -2.86510 | 3053 ft | 216 kts | 180° |
| 2026-04-21 11:31 | 49.49073 | -2.86800 | 2846 ft | 208 kts | 180° |
| 2026-04-21 11:31 | 49.47653 | -2.87093 | 2648 ft | 204 kts | 180° |
| 2026-04-21 11:31 | 49.46329 | -2.86916 | 2508 ft | 181 kts | 147° |
| 2026-04-21 11:31 | 49.45426 | -2.85737 | 2383 ft | 167 kts | 123° |
| 2026-04-21 11:32 | 49.44786 | -2.84303 | 2266 ft | 163 kts | 116° |
| 2026-04-21 11:32 | 49.44200 | -2.82817 | 2163 ft | 162 kts | 116° |
| 2026-04-21 11:32 | 49.43625 | -2.81328 | 2091 ft | 162 kts | 115° |
| 2026-04-21 11:32 | 49.43087 | -2.79809 | 2010 ft | 161 kts | 105° |
| 2026-04-21 11:33 | 49.42978 | -2.78127 | 2018 ft | 159 kts | 86° |
| 2026-04-21 11:33 | 49.43028 | -2.76474 | 2004 ft | 149 kts | 86° |
| 2026-04-21 11:33 | 49.43069 | -2.75117 | 1985 ft | 143 kts | 86° |
| 2026-04-21 11:33 | 49.43114 | -2.73599 | 1883 ft | 142 kts | 86° |
| 2026-04-21 11:34 | 49.43156 | -2.72146 | 1728 ft | 132 kts | 86° |
| 2026-04-21 11:34 | 49.43194 | -2.70831 | 1559 ft | 121 kts | 86° |
| 2026-04-21 11:34 | 49.43229 | -2.69600 | 1403 ft | 117 kts | 86° |
| 2026-04-21 11:34 | 49.43261 | -2.68481 | 1258 ft | 116 kts | 85° |
| 2026-04-21 11:35 | 49.43297 | -2.67233 | 1102 ft | 116 kts | 85° |
| 2026-04-21 11:35 | 49.43333 | -2.65976 | 934 ft | 118 kts | 85° |
| 2026-04-21 11:35 | 49.43370 | -2.64731 | 769 ft | 117 kts | 84° |
| 2026-04-21 11:35 | 49.43404 | -2.63472 | 618 ft | 117 kts | 86° |
| 2026-04-21 11:36 | 49.43437 | -2.62213 | 459 ft | 118 kts | 85° |
| 2026-04-21 11:36 | 49.43474 | -2.60974 | 350 ft | 108 kts | 85° |
| 2026-04-21 11:36 | 49.43498 | -2.60185 | 335 ft | 46 kts | 87° |
| 2026-04-21 11:36 | 49.43512 | -2.59695 | 347 ft | 50 kts | 87° |
| 2026-04-21 11:37 | 49.43521 | -2.59266 | 348 ft | 22 kts | 96° |
| 2026-04-21 11:37 | 49.43421 | -2.59197 | 338 ft | 5 kts | 178° |
| 2026-04-21 11:37 | 49.43387 | -2.59213 | 338 ft | 0 kts | 214° |
| 2026-04-21 11:37 | 49.43376 | -2.59229 | 337 ft | 6 kts | 230° |
| 2026-04-21 11:38 | 49.43370 | -2.59322 | 340 ft | 12 kts | 267° |
| 2026-04-21 11:38 | 49.43367 | -2.59420 | 335 ft | 1 kts | 267° |
| 2026-04-21 11:38 | 49.43366 | -2.59450 | 338 ft | 6 kts | 267° |
| 2026-04-21 11:38 | 49.43363 | -2.59546 | 340 ft | 12 kts | 267° |
| 2026-04-21 11:39 | 49.43361 | -2.59602 | 340 ft | 3 kts | 263° |
| 2026-04-21 11:39 | 49.43328 | -2.59627 | 340 ft | 8 kts | 178° |
| 2026-04-21 11:39 | 49.43269 | -2.59621 | 340 ft | 6 kts | 177° |
| 2026-04-21 11:39 | 49.43255 | -2.59620 | 340 ft | 1 kts | 177° |